sensor_id;sensor_type;location;lat;lon;timestamp;temperature;humidity
16907;DHT22;8570;52.380;4.654;2022-12-18T00:04:43;-2.10;99.90
16907;DHT22;8570;52.380;4.654;2022-12-18T00:09:47;-2.10;99.90
16907;DHT22;8570;52.380;4.654;2022-12-18T00:14:49;-2.10;99.90
16907;DHT22;8570;52.380;4.654;2022-12-18T00:19:50;-2.10;99.90
16907;DHT22;8570;52.380;4.654;2022-12-18T00:24:54;-2.20;99.90
16907;DHT22;8570;52.380;4.654;2022-12-18T00:29:56;-2.20;99.90
16907;DHT22;8570;52.380;4.654;2022-12-18T00:34:57;-2.20;99.90
16907;DHT22;8570;52.380;4.654;2022-12-18T00:40:01;-2.20;99.90
16907;DHT22;8570;52.380;4.654;2022-12-18T00:45:03;-2.20;99.90
16907;DHT22;8570;52.380;4.654;2022-12-18T00:50:06;-2.20;99.90
16907;DHT22;8570;52.380;4.654;2022-12-18T00:55:10;-2.30;99.90
16907;DHT22;8570;52.380;4.654;2022-12-18T01:00:14;-2.30;99.90
16907;DHT22;8570;52.380;4.654;2022-12-18T01:05:16;-2.30;99.90
16907;DHT22;8570;52.380;4.654;2022-12-18T01:10:19;-2.30;99.90
16907;DHT22;8570;52.380;4.654;2022-12-18T01:15:21;-2.30;99.90
16907;DHT22;8570;52.380;4.654;2022-12-18T01:20:23;-2.40;99.90
16907;DHT22;8570;52.380;4.654;2022-12-18T01:25:26;-2.40;99.90
16907;DHT22;8570;52.380;4.654;2022-12-18T01:30:28;-2.40;99.90
16907;DHT22;8570;52.380;4.654;2022-12-18T01:35:30;-2.40;99.90
16907;DHT22;8570;52.380;4.654;2022-12-18T01:40:33;-2.40;99.90
16907;DHT22;8570;52.380;4.654;2022-12-18T01:45:35;-2.40;99.90
16907;DHT22;8570;52.380;4.654;2022-12-18T01:50:39;-2.50;99.90
16907;DHT22;8570;52.380;4.654;2022-12-18T01:55:48;-2.50;99.90
16907;DHT22;8570;52.380;4.654;2022-12-18T02:00:50;-2.50;99.90
16907;DHT22;8570;52.380;4.654;2022-12-18T02:05:59;-2.60;99.90
16907;DHT22;8570;52.380;4.654;2022-12-18T02:11:07;-2.60;99.90
16907;DHT22;8570;52.380;4.654;2022-12-18T02:16:19;-2.70;99.90
16907;DHT22;8570;52.380;4.654;2022-12-18T02:21:28;-2.70;99.90
16907;DHT22;8570;52.380;4.654;2022-12-18T02:26:36;-2.80;99.90
16907;DHT22;8570;52.380;4.654;2022-12-18T02:31:43;-2.70;99.90
16907;DHT22;8570;52.380;4.654;2022-12-18T02:36:48;-2.70;99.90
16907;DHT22;8570;52.380;4.654;2022-12-18T02:41:52;-2.70;99.90
16907;DHT22;8570;52.380;4.654;2022-12-18T02:46:54;-2.70;99.90
16907;DHT22;8570;52.380;4.654;2022-12-18T02:52:02;-2.70;99.90
16907;DHT22;8570;52.380;4.654;2022-12-18T02:57:14;-2.70;99.90
16907;DHT22;8570;52.380;4.654;2022-12-18T03:02:20;-2.80;99.90
16907;DHT22;8570;52.380;4.654;2022-12-18T03:07:28;-2.90;99.90
16907;DHT22;8570;52.380;4.654;2022-12-18T03:12:38;-2.90;99.90
16907;DHT22;8570;52.380;4.654;2022-12-18T03:17:45;-2.90;99.90
16907;DHT22;8570;52.380;4.654;2022-12-18T03:22:51;-2.90;99.90
16907;DHT22;8570;52.380;4.654;2022-12-18T03:27:58;-2.80;99.90
16907;DHT22;8570;52.380;4.654;2022-12-18T03:33:07;-2.80;99.90
16907;DHT22;8570;52.380;4.654;2022-12-18T03:38:10;-2.80;99.90
16907;DHT22;8570;52.380;4.654;2022-12-18T03:43:19;-2.90;99.90
16907;DHT22;8570;52.380;4.654;2022-12-18T03:48:27;-2.90;99.90
16907;DHT22;8570;52.380;4.654;2022-12-18T03:53:36;-2.90;99.90
16907;DHT22;8570;52.380;4.654;2022-12-18T03:58:43;-2.90;99.90
16907;DHT22;8570;52.380;4.654;2022-12-18T04:03:50;-2.90;99.90
16907;DHT22;8570;52.380;4.654;2022-12-18T04:08:53;-2.90;99.90
16907;DHT22;8570;52.380;4.654;2022-12-18T04:13:57;-3.00;99.90
16907;DHT22;8570;52.380;4.654;2022-12-18T04:18:59;-3.00;99.90
16907;DHT22;8570;52.380;4.654;2022-12-18T04:24:01;-3.10;99.90
16907;DHT22;8570;52.380;4.654;2022-12-18T04:29:04;-3.20;99.90
16907;DHT22;8570;52.380;4.654;2022-12-18T04:34:06;-3.10;99.90
16907;DHT22;8570;52.380;4.654;2022-12-18T04:39:08;-3.20;99.90
16907;DHT22;8570;52.380;4.654;2022-12-18T04:44:11;-3.20;99.90
16907;DHT22;8570;52.380;4.654;2022-12-18T04:49:13;-3.20;99.90
16907;DHT22;8570;52.380;4.654;2022-12-18T04:54:15;-3.20;99.90
16907;DHT22;8570;52.380;4.654;2022-12-18T04:59:20;-3.20;99.90
16907;DHT22;8570;52.380;4.654;2022-12-18T05:04:22;-3.20;99.90
16907;DHT22;8570;52.380;4.654;2022-12-18T05:09:24;-3.20;99.90
16907;DHT22;8570;52.380;4.654;2022-12-18T05:14:27;-3.20;99.90
16907;DHT22;8570;52.380;4.654;2022-12-18T05:19:29;-3.20;99.90
16907;DHT22;8570;52.380;4.654;2022-12-18T05:24:31;-3.30;99.90
16907;DHT22;8570;52.380;4.654;2022-12-18T05:29:35;-3.30;99.90
16907;DHT22;8570;52.380;4.654;2022-12-18T05:34:36;-3.30;99.90
16907;DHT22;8570;52.380;4.654;2022-12-18T05:39:42;-3.40;99.90
16907;DHT22;8570;52.380;4.654;2022-12-18T05:44:46;-3.40;99.90
16907;DHT22;8570;52.380;4.654;2022-12-18T05:49:47;-3.40;99.90
16907;DHT22;8570;52.380;4.654;2022-12-18T05:54:49;-3.40;99.90
16907;DHT22;8570;52.380;4.654;2022-12-18T05:59:53;-3.50;99.90
16907;DHT22;8570;52.380;4.654;2022-12-18T06:04:55;-3.50;99.90
16907;DHT22;8570;52.380;4.654;2022-12-18T06:09:56;-3.50;99.90
16907;DHT22;8570;52.380;4.654;2022-12-18T06:15:00;-3.60;99.90
16907;DHT22;8570;52.380;4.654;2022-12-18T06:20:03;-3.60;99.90
16907;DHT22;8570;52.380;4.654;2022-12-18T06:25:06;-3.60;99.90
16907;DHT22;8570;52.380;4.654;2022-12-18T06:30:12;-3.70;99.90
16907;DHT22;8570;52.380;4.654;2022-12-18T06:35:14;-3.70;99.90
16907;DHT22;8570;52.380;4.654;2022-12-18T06:40:16;-3.70;99.90
16907;DHT22;8570;52.380;4.654;2022-12-18T06:45:20;-3.70;99.90
16907;DHT22;8570;52.380;4.654;2022-12-18T06:50:22;-3.80;99.90
16907;DHT22;8570;52.380;4.654;2022-12-18T06:55:24;-3.80;99.90
16907;DHT22;8570;52.380;4.654;2022-12-18T07:00:27;-3.90;99.90
16907;DHT22;8570;52.380;4.654;2022-12-18T07:05:29;-3.90;99.90
16907;DHT22;8570;52.380;4.654;2022-12-18T07:10:31;-3.90;99.90
16907;DHT22;8570;52.380;4.654;2022-12-18T07:15:36;-3.90;99.90
16907;DHT22;8570;52.380;4.654;2022-12-18T07:20:38;-4.00;99.90
16907;DHT22;8570;52.380;4.654;2022-12-18T07:25:40;-4.00;99.90
16907;DHT22;8570;52.380;4.654;2022-12-18T07:30:43;-4.00;99.90
16907;DHT22;8570;52.380;4.654;2022-12-18T07:35:45;-4.00;99.90
16907;DHT22;8570;52.380;4.654;2022-12-18T07:40:47;-4.10;99.90
16907;DHT22;8570;52.380;4.654;2022-12-18T07:45:51;-4.10;99.90
16907;DHT22;8570;52.380;4.654;2022-12-18T07:50:52;-4.10;99.90
16907;DHT22;8570;52.380;4.654;2022-12-18T07:55:58;-4.20;99.90
16907;DHT22;8570;52.380;4.654;2022-12-18T08:01:05;-4.20;99.90
16907;DHT22;8570;52.380;4.654;2022-12-18T08:06:08;-4.20;99.90
16907;DHT22;8570;52.380;4.654;2022-12-18T08:11:10;-4.20;99.90
16907;DHT22;8570;52.380;4.654;2022-12-18T08:16:14;-4.20;99.90
16907;DHT22;8570;52.380;4.654;2022-12-18T08:21:17;-4.20;99.90
16907;DHT22;8570;52.380;4.654;2022-12-18T08:26:24;-4.10;99.90
16907;DHT22;8570;52.380;4.654;2022-12-18T08:31:29;-4.10;99.90
16907;DHT22;8570;52.380;4.654;2022-12-18T08:36:31;-4.10;99.90
16907;DHT22;8570;52.380;4.654;2022-12-18T08:41:33;-4.10;99.90
16907;DHT22;8570;52.380;4.654;2022-12-18T08:46:37;-4.10;99.90
16907;DHT22;8570;52.380;4.654;2022-12-18T08:51:40;-4.10;99.90
16907;DHT22;8570;52.380;4.654;2022-12-18T08:56:42;-4.00;99.90
16907;DHT22;8570;52.380;4.654;2022-12-18T09:01:46;-4.00;99.90
16907;DHT22;8570;52.380;4.654;2022-12-18T09:06:48;-4.00;99.90
16907;DHT22;8570;52.380;4.654;2022-12-18T09:11:53;-3.90;99.90
16907;DHT22;8570;52.380;4.654;2022-12-18T09:16:56;-3.90;99.90
16907;DHT22;8570;52.380;4.654;2022-12-18T09:21:58;-3.80;99.90
16907;DHT22;8570;52.380;4.654;2022-12-18T09:27:00;-3.70;99.90
16907;DHT22;8570;52.380;4.654;2022-12-18T09:32:04;-3.70;99.90
16907;DHT22;8570;52.380;4.654;2022-12-18T09:37:08;-3.60;99.90
16907;DHT22;8570;52.380;4.654;2022-12-18T09:42:17;-3.50;99.90
16907;DHT22;8570;52.380;4.654;2022-12-18T09:47:25;-3.50;99.90
16907;DHT22;8570;52.380;4.654;2022-12-18T09:52:33;-3.40;99.90
16907;DHT22;8570;52.380;4.654;2022-12-18T09:57:40;-3.40;99.90
16907;DHT22;8570;52.380;4.654;2022-12-18T10:02:47;-3.30;99.90
16907;DHT22;8570;52.380;4.654;2022-12-18T10:07:55;-3.30;99.90
16907;DHT22;8570;52.380;4.654;2022-12-18T10:13:06;-3.20;99.90
16907;DHT22;8570;52.380;4.654;2022-12-18T10:18:23;-3.20;99.90
16907;DHT22;8570;52.380;4.654;2022-12-18T10:23:31;-3.10;99.90
16907;DHT22;8570;52.380;4.654;2022-12-18T10:28:36;-3.00;99.90
16907;DHT22;8570;52.380;4.654;2022-12-18T10:33:40;-3.00;99.90
16907;DHT22;8570;52.380;4.654;2022-12-18T10:38:42;-2.90;99.90
16907;DHT22;8570;52.380;4.654;2022-12-18T10:43:44;-2.90;99.90
16907;DHT22;8570;52.380;4.654;2022-12-18T10:48:56;-2.80;99.90
16907;DHT22;8570;52.380;4.654;2022-12-18T10:54:00;-2.80;99.90
16907;DHT22;8570;52.380;4.654;2022-12-18T10:59:05;-2.70;99.90
16907;DHT22;8570;52.380;4.654;2022-12-18T11:04:09;-2.60;99.90
16907;DHT22;8570;52.380;4.654;2022-12-18T11:09:20;-2.60;99.90
16907;DHT22;8570;52.380;4.654;2022-12-18T11:14:24;-2.50;99.90
16907;DHT22;8570;52.380;4.654;2022-12-18T11:19:32;-2.40;99.90
16907;DHT22;8570;52.380;4.654;2022-12-18T11:24:35;-2.40;99.90
16907;DHT22;8570;52.380;4.654;2022-12-18T11:29:39;-2.30;99.90
16907;DHT22;8570;52.380;4.654;2022-12-18T11:34:46;-2.30;99.90
16907;DHT22;8570;52.380;4.654;2022-12-18T11:39:52;-2.20;99.90
16907;DHT22;8570;52.380;4.654;2022-12-18T11:44:59;-2.20;99.90
16907;DHT22;8570;52.380;4.654;2022-12-18T11:50:12;-2.10;99.90
16907;DHT22;8570;52.380;4.654;2022-12-18T11:55:16;-2.10;99.90
16907;DHT22;8570;52.380;4.654;2022-12-18T12:00:22;-2.00;99.90
16907;DHT22;8570;52.380;4.654;2022-12-18T12:05:41;-2.00;99.90
16907;DHT22;8570;52.380;4.654;2022-12-18T12:10:53;-1.90;99.90
16907;DHT22;8570;52.380;4.654;2022-12-18T12:16:06;-1.80;99.90
16907;DHT22;8570;52.380;4.654;2022-12-18T12:21:16;-1.70;99.90
16907;DHT22;8570;52.380;4.654;2022-12-18T12:26:26;-1.70;99.90
16907;DHT22;8570;52.380;4.654;2022-12-18T12:31:43;-1.60;99.90
16907;DHT22;8570;52.380;4.654;2022-12-18T12:37:02;-1.50;99.90
16907;DHT22;8570;52.380;4.654;2022-12-18T12:42:14;-1.50;99.90
16907;DHT22;8570;52.380;4.654;2022-12-18T12:47:40;-1.40;99.90
16907;DHT22;8570;52.380;4.654;2022-12-18T12:52:46;-1.40;99.90
16907;DHT22;8570;52.380;4.654;2022-12-18T12:57:56;-1.30;99.90
16907;DHT22;8570;52.380;4.654;2022-12-18T13:03:03;-1.30;99.90
16907;DHT22;8570;52.380;4.654;2022-12-18T13:08:11;-1.30;99.90
16907;DHT22;8570;52.380;4.654;2022-12-18T13:13:14;-1.20;99.90
16907;DHT22;8570;52.380;4.654;2022-12-18T13:18:19;-1.20;99.90
16907;DHT22;8570;52.380;4.654;2022-12-18T13:23:38;-1.10;99.90
16907;DHT22;8570;52.380;4.654;2022-12-18T13:28:53;-1.10;99.90
16907;DHT22;8570;52.380;4.654;2022-12-18T13:34:12;-1.10;99.90
16907;DHT22;8570;52.380;4.654;2022-12-18T13:39:35;-1.10;99.90
16907;DHT22;8570;52.380;4.654;2022-12-18T13:44:39;-1.10;99.90
16907;DHT22;8570;52.380;4.654;2022-12-18T13:49:43;-0.70;99.90
16907;DHT22;8570;52.380;4.654;2022-12-18T13:54:49;-0.50;99.90
16907;DHT22;8570;52.380;4.654;2022-12-18T13:59:52;-0.60;99.90
16907;DHT22;8570;52.380;4.654;2022-12-18T14:04:54;-0.70;99.90
16907;DHT22;8570;52.380;4.654;2022-12-18T14:09:59;-0.70;99.90
16907;DHT22;8570;52.380;4.654;2022-12-18T14:15:02;-0.80;99.90
16907;DHT22;8570;52.380;4.654;2022-12-18T14:20:13;-0.80;99.90
16907;DHT22;8570;52.380;4.654;2022-12-18T14:25:19;-0.80;99.90
16907;DHT22;8570;52.380;4.654;2022-12-18T14:30:27;-0.40;99.90
16907;DHT22;8570;52.380;4.654;2022-12-18T14:35:29;-0.20;99.90
16907;DHT22;8570;52.380;4.654;2022-12-18T14:40:32;-0.30;99.90
16907;DHT22;8570;52.380;4.654;2022-12-18T14:45:35;-0.40;99.90
16907;DHT22;8570;52.380;4.654;2022-12-18T14:50:37;-0.50;99.90
16907;DHT22;8570;52.380;4.654;2022-12-18T14:55:45;-0.50;99.90
16907;DHT22;8570;52.380;4.654;2022-12-18T15:00:48;-0.60;99.90
16907;DHT22;8570;52.380;4.654;2022-12-18T15:05:50;-0.60;99.90
16907;DHT22;8570;52.380;4.654;2022-12-18T15:10:53;-0.60;99.90
16907;DHT22;8570;52.380;4.654;2022-12-18T15:16:00;-0.60;99.90
16907;DHT22;8570;52.380;4.654;2022-12-18T15:21:09;-0.60;99.90
16907;DHT22;8570;52.380;4.654;2022-12-18T15:26:14;-0.60;99.90
16907;DHT22;8570;52.380;4.654;2022-12-18T15:31:26;-0.60;99.90
16907;DHT22;8570;52.380;4.654;2022-12-18T15:36:30;-0.60;99.90
16907;DHT22;8570;52.380;4.654;2022-12-18T15:41:38;-0.60;99.90
16907;DHT22;8570;52.380;4.654;2022-12-18T15:46:40;-0.60;99.90
16907;DHT22;8570;52.380;4.654;2022-12-18T15:51:42;-0.60;99.90
16907;DHT22;8570;52.380;4.654;2022-12-18T15:56:45;-0.60;99.90
16907;DHT22;8570;52.380;4.654;2022-12-18T16:02:14;-0.50;99.90
16907;DHT22;8570;52.380;4.654;2022-12-18T16:07:17;-0.50;99.90
16907;DHT22;8570;52.380;4.654;2022-12-18T16:12:22;-0.50;99.90
16907;DHT22;8570;52.380;4.654;2022-12-18T16:17:25;-0.50;99.90
16907;DHT22;8570;52.380;4.654;2022-12-18T16:22:28;-0.50;99.90
16907;DHT22;8570;52.380;4.654;2022-12-18T16:27:32;-0.50;99.90
16907;DHT22;8570;52.380;4.654;2022-12-18T16:32:34;-0.50;99.90
16907;DHT22;8570;52.380;4.654;2022-12-18T16:37:35;-0.40;99.90
16907;DHT22;8570;52.380;4.654;2022-12-18T16:42:40;-0.50;99.90
16907;DHT22;8570;52.380;4.654;2022-12-18T16:47:42;-0.40;99.90
16907;DHT22;8570;52.380;4.654;2022-12-18T16:52:44;-0.40;99.90
16907;DHT22;8570;52.380;4.654;2022-12-18T16:57:50;-0.40;99.90
16907;DHT22;8570;52.380;4.654;2022-12-18T17:02:51;-0.40;99.90
16907;DHT22;8570;52.380;4.654;2022-12-18T17:07:54;-0.30;99.90
16907;DHT22;8570;52.380;4.654;2022-12-18T17:12:57;-0.30;99.90
16907;DHT22;8570;52.380;4.654;2022-12-18T17:18:00;-0.30;99.90
16907;DHT22;8570;52.380;4.654;2022-12-18T17:23:02;-0.30;99.90
16907;DHT22;8570;52.380;4.654;2022-12-18T17:28:05;-0.30;99.90
16907;DHT22;8570;52.380;4.654;2022-12-18T17:33:07;-0.30;99.90
16907;DHT22;8570;52.380;4.654;2022-12-18T17:38:09;-0.30;99.90
16907;DHT22;8570;52.380;4.654;2022-12-18T17:43:12;-0.20;99.90
16907;DHT22;8570;52.380;4.654;2022-12-18T17:48:14;-0.20;99.90
16907;DHT22;8570;52.380;4.654;2022-12-18T17:53:16;-0.20;99.90
16907;DHT22;8570;52.380;4.654;2022-12-18T17:58:19;-0.20;99.90
16907;DHT22;8570;52.380;4.654;2022-12-18T18:03:21;-0.10;99.90
16907;DHT22;8570;52.380;4.654;2022-12-18T18:08:23;-0.10;99.90
16907;DHT22;8570;52.380;4.654;2022-12-18T18:13:26;-0.10;99.90
16907;DHT22;8570;52.380;4.654;2022-12-18T18:18:51;-0.10;99.90
16907;DHT22;8570;52.380;4.654;2022-12-18T18:23:53;-0.10;99.90
16907;DHT22;8570;52.380;4.654;2022-12-18T18:28:56;-0.10;99.90
16907;DHT22;8570;52.380;4.654;2022-12-18T18:33:58;0.00;99.90
16907;DHT22;8570;52.380;4.654;2022-12-18T18:39:00;0.00;99.90
16907;DHT22;8570;52.380;4.654;2022-12-18T18:44:04;0.00;99.90
16907;DHT22;8570;52.380;4.654;2022-12-18T18:49:06;0.00;99.90
16907;DHT22;8570;52.380;4.654;2022-12-18T18:54:09;0.10;99.90
16907;DHT22;8570;52.380;4.654;2022-12-18T18:59:12;0.10;99.90
16907;DHT22;8570;52.380;4.654;2022-12-18T19:04:14;0.10;99.90
16907;DHT22;8570;52.380;4.654;2022-12-18T19:09:15;0.10;99.90
16907;DHT22;8570;52.380;4.654;2022-12-18T19:14:19;0.10;99.90
16907;DHT22;8570;52.380;4.654;2022-12-18T19:19:21;0.20;99.90
16907;DHT22;8570;52.380;4.654;2022-12-18T19:24:23;0.20;99.90
16907;DHT22;8570;52.380;4.654;2022-12-18T19:29:26;0.20;99.90
16907;DHT22;8570;52.380;4.654;2022-12-18T19:34:28;0.20;99.90
16907;DHT22;8570;52.380;4.654;2022-12-18T19:39:30;0.20;99.90
16907;DHT22;8570;52.380;4.654;2022-12-18T19:44:33;0.20;99.90
16907;DHT22;8570;52.380;4.654;2022-12-18T19:49:35;0.20;99.90
16907;DHT22;8570;52.380;4.654;2022-12-18T19:54:38;0.20;99.90
16907;DHT22;8570;52.380;4.654;2022-12-18T19:59:41;0.20;99.90
16907;DHT22;8570;52.380;4.654;2022-12-18T20:04:46;0.20;99.90
16907;DHT22;8570;52.380;4.654;2022-12-18T20:09:48;0.20;99.90
16907;DHT22;8570;52.380;4.654;2022-12-18T20:14:51;0.20;99.90
16907;DHT22;8570;52.380;4.654;2022-12-18T20:19:56;0.30;99.90
16907;DHT22;8570;52.380;4.654;2022-12-18T20:24:57;0.30;99.90
16907;DHT22;8570;52.380;4.654;2022-12-18T20:30:01;0.30;99.90
16907;DHT22;8570;52.380;4.654;2022-12-18T20:35:03;0.30;99.90
16907;DHT22;8570;52.380;4.654;2022-12-18T20:40:06;0.40;99.90
16907;DHT22;8570;52.380;4.654;2022-12-18T20:45:10;0.40;99.90
16907;DHT22;8570;52.380;4.654;2022-12-18T20:50:12;0.40;99.90
16907;DHT22;8570;52.380;4.654;2022-12-18T20:55:14;0.40;99.90
16907;DHT22;8570;52.380;4.654;2022-12-18T21:00:17;0.40;99.90
16907;DHT22;8570;52.380;4.654;2022-12-18T21:05:20;0.50;99.90
16907;DHT22;8570;52.380;4.654;2022-12-18T21:10:22;0.50;99.90
16907;DHT22;8570;52.380;4.654;2022-12-18T21:15:25;0.50;99.90
16907;DHT22;8570;52.380;4.654;2022-12-18T21:20:27;0.50;99.90
16907;DHT22;8570;52.380;4.654;2022-12-18T21:25:29;0.60;99.90
16907;DHT22;8570;52.380;4.654;2022-12-18T21:30:32;0.60;99.90
16907;DHT22;8570;52.380;4.654;2022-12-18T21:35:34;0.60;99.90
16907;DHT22;8570;52.380;4.654;2022-12-18T21:40:37;0.60;99.90
16907;DHT22;8570;52.380;4.654;2022-12-18T21:45:43;0.60;99.90
16907;DHT22;8570;52.380;4.654;2022-12-18T21:50:45;0.60;99.90
16907;DHT22;8570;52.380;4.654;2022-12-18T21:55:56;0.60;99.90
16907;DHT22;8570;52.380;4.654;2022-12-18T22:01:01;0.70;99.90
16907;DHT22;8570;52.380;4.654;2022-12-18T22:06:03;0.70;99.90
16907;DHT22;8570;52.380;4.654;2022-12-18T22:11:05;0.70;99.90
16907;DHT22;8570;52.380;4.654;2022-12-18T22:16:08;0.70;99.90
16907;DHT22;8570;52.380;4.654;2022-12-18T22:21:21;0.80;99.90
16907;DHT22;8570;52.380;4.654;2022-12-18T22:26:25;0.70;99.90
16907;DHT22;8570;52.380;4.654;2022-12-18T22:31:28;0.80;99.90
16907;DHT22;8570;52.380;4.654;2022-12-18T22:36:34;0.80;99.90
16907;DHT22;8570;52.380;4.654;2022-12-18T22:41:36;0.80;99.90
16907;DHT22;8570;52.380;4.654;2022-12-18T22:46:43;0.90;99.90
16907;DHT22;8570;52.380;4.654;2022-12-18T22:51:46;0.80;99.90
16907;DHT22;8570;52.380;4.654;2022-12-18T22:56:48;0.90;99.90
16907;DHT22;8570;52.380;4.654;2022-12-18T23:01:52;0.90;99.90
16907;DHT22;8570;52.380;4.654;2022-12-18T23:06:54;0.90;99.90
16907;DHT22;8570;52.380;4.654;2022-12-18T23:11:56;0.90;99.90
16907;DHT22;8570;52.380;4.654;2022-12-18T23:16:59;0.90;99.90
16907;DHT22;8570;52.380;4.654;2022-12-18T23:22:01;1.00;99.90
16907;DHT22;8570;52.380;4.654;2022-12-18T23:27:03;1.00;99.90
16907;DHT22;8570;52.380;4.654;2022-12-18T23:32:06;1.00;99.90
16907;DHT22;8570;52.380;4.654;2022-12-18T23:37:08;1.10;99.90
16907;DHT22;8570;52.380;4.654;2022-12-18T23:42:10;1.10;99.90
16907;DHT22;8570;52.380;4.654;2022-12-18T23:47:13;1.10;99.90
16907;DHT22;8570;52.380;4.654;2022-12-18T23:52:15;1.10;99.90
16907;DHT22;8570;52.380;4.654;2022-12-18T23:57:17;1.10;99.90
